createdAt,value
2023-11-24T00:00:16.222Z,69.72
2023-11-24T00:01:16.224Z,69.14
2023-11-24T00:02:16.337Z,64.97
2023-11-24T00:03:16.222Z,65.65
2023-11-24T00:04:16.230Z,67.30
2023-11-24T00:05:16.161Z,73.18
2023-11-24T00:06:16.160Z,65.19
2023-11-24T00:07:16.131Z,66.34
2023-11-24T00:08:16.135Z,65.47
2023-11-24T00:09:16.109Z,63.75
2023-11-24T00:10:16.111Z,66.61
2023-11-24T00:11:16.120Z,67.98
2023-11-24T00:12:16.099Z,72.43
2023-11-24T00:13:16.105Z,64.06
2023-11-24T00:14:16.083Z,72.55
2023-11-24T00:15:16.105Z,68.95
2023-11-24T00:16:16.092Z,62.66
2023-11-24T00:17:16.049Z,62.15
2023-11-24T00:18:16.124Z,67.88
2023-11-24T00:19:16.036Z,62.78
2023-11-24T00:20:16.014Z,70.45
2023-11-24T00:21:16.025Z,66.15
2023-11-24T00:22:15.998Z,69.62
2023-11-24T00:23:15.999Z,67.84
2023-11-24T00:24:15.974Z,67.04
2023-11-24T00:25:15.976Z,65.03
2023-11-24T00:26:15.954Z,61.66
2023-11-24T00:27:15.966Z,68.18
2023-11-24T00:28:15.960Z,65.31
2023-11-24T00:29:15.938Z,67.92
2023-11-24T00:30:15.937Z,66.54
2023-11-24T00:31:15.916Z,61.81
2023-11-24T00:32:15.908Z,70.33
2023-11-24T00:33:16.007Z,62.80
2023-11-24T00:34:15.985Z,70.85
2023-11-24T00:35:15.885Z,64.35
2023-11-24T00:36:15.875Z,69.85
2023-11-24T00:37:15.856Z,65.27
2023-11-24T00:38:15.858Z,67.28
2023-11-24T00:39:15.850Z,60.93
2023-11-24T00:40:15.848Z,68.81
2023-11-24T00:41:15.844Z,65.87
2023-11-24T00:42:15.825Z,66.13
2023-11-24T00:43:15.823Z,62.44
2023-11-24T00:44:15.799Z,68.54
2023-11-24T00:45:15.812Z,67.66
2023-11-24T00:46:15.808Z,67.18
2023-11-24T00:47:15.787Z,63.71
2023-11-24T00:48:15.756Z,67.97
2023-11-24T00:49:15.757Z,64.92
2023-11-24T00:50:15.735Z,63.87
2023-11-24T00:51:15.799Z,66.48
2023-11-24T00:52:15.717Z,65.52
2023-11-24T00:53:15.760Z,69.71
2023-11-24T00:54:15.694Z,66.72
2023-11-24T00:55:15.701Z,68.80
2023-11-24T00:56:15.674Z,66.88
2023-11-24T00:57:15.687Z,63.87
2023-11-24T00:58:15.664Z,62.39
2023-11-24T00:59:15.670Z,64.49
2023-11-24T01:00:15.666Z,68.63
2023-11-24T01:01:15.640Z,68.04
2023-11-24T01:02:15.640Z,65.56
2023-11-24T01:03:15.705Z,67.71
2023-11-24T01:04:15.655Z,67.80
2023-11-24T01:05:15.600Z,68.14
2023-11-24T01:06:15.605Z,65.30
2023-11-24T01:07:15.582Z,63.95
2023-11-24T01:08:15.585Z,62.51
2023-11-24T01:09:15.561Z,65.12
2023-11-24T01:10:16.117Z,69.21
2023-11-24T01:11:15.547Z,68.08
2023-11-24T01:12:15.546Z,66.96
2023-11-24T01:13:20.536Z,63.53
2023-11-24T01:14:15.520Z,63.69
2023-11-24T01:15:15.512Z,63.91
2023-11-24T01:16:15.498Z,63.63
2023-11-24T01:17:15.518Z,65.03
2023-11-24T01:18:15.531Z,66.31
2023-11-24T01:19:15.522Z,62.49
2023-11-24T01:20:15.455Z,66.10
2023-11-24T01:21:15.464Z,62.31
2023-11-24T01:22:15.437Z,64.76
2023-11-24T01:23:15.427Z,69.97
2023-11-24T01:24:15.426Z,67.07
2023-11-24T01:25:15.429Z,66.40
2023-11-24T01:26:15.395Z,66.76
2023-11-24T01:27:15.398Z,67.28
2023-11-24T01:28:15.375Z,60.83
2023-11-24T01:29:15.388Z,63.82
2023-11-24T01:30:15.365Z,64.98
2023-11-24T01:31:15.367Z,61.74
2023-11-24T01:32:15.341Z,65.72
2023-11-24T01:33:15.359Z,65.38
2023-11-24T01:34:15.394Z,63.01
2023-11-24T01:35:15.323Z,63.50
2023-11-24T01:36:15.337Z,67.69
2023-11-24T01:37:15.387Z,63.38
2023-11-24T01:38:15.285Z,67.09
2023-11-24T01:39:15.298Z,65.08
2023-11-24T01:40:15.276Z,62.40
2023-11-24T01:41:15.266Z,63.04
2023-11-24T01:42:15.265Z,63.95
2023-11-24T01:43:15.239Z,62.12
2023-11-24T01:44:15.223Z,60.95
2023-11-24T01:45:15.235Z,66.66
2023-11-24T01:46:15.309Z,67.12
2023-11-24T01:47:15.213Z,62.58
2023-11-24T01:48:15.220Z,61.90
2023-11-24T01:49:15.196Z,66.34
2023-11-24T01:50:15.188Z,63.61
2023-11-24T01:51:15.168Z,63.78
2023-11-24T01:52:15.243Z,64.93
2023-11-24T01:53:15.244Z,61.87
2023-11-24T01:54:15.166Z,63.72
2023-11-24T01:55:15.196Z,62.80
2023-11-24T01:56:15.127Z,64.65
2023-11-24T01:57:15.114Z,66.03
2023-11-24T01:58:15.111Z,58.54
2023-11-24T01:59:15.107Z,63.06
2023-11-24T02:00:15.270Z,66.01
2023-11-24T02:01:15.106Z,62.95
2023-11-24T02:02:15.166Z,63.70
2023-11-24T02:03:15.149Z,59.70
2023-11-24T02:04:15.046Z,63.95
2023-11-24T02:05:15.056Z,63.21
2023-11-24T02:06:15.033Z,63.30
2023-11-24T02:07:15.029Z,59.41
2023-11-24T02:08:15.004Z,66.39
2023-11-24T02:09:15.011Z,63.46
2023-11-24T02:10:14.987Z,63.93
2023-11-24T02:11:14.999Z,65.93
2023-11-24T02:12:14.979Z,64.20
2023-11-24T02:13:14.972Z,66.16
2023-11-24T02:14:14.953Z,62.32
2023-11-24T02:15:14.957Z,60.87
2023-11-24T02:16:14.982Z,61.51
2023-11-24T02:17:14.937Z,61.25
2023-11-24T02:18:14.907Z,61.09
2023-11-24T02:19:14.925Z,65.82
2023-11-24T02:20:15.264Z,65.50
2023-11-24T02:21:14.900Z,64.34
2023-11-24T02:22:14.870Z,65.83
2023-11-24T02:23:14.876Z,66.08
2023-11-24T02:24:14.871Z,63.79
2023-11-24T02:25:19.907Z,64.67
2023-11-24T02:26:14.858Z,64.70
2023-11-24T02:27:14.846Z,64.79
2023-11-24T02:28:14.838Z,64.95
2023-11-24T02:29:14.835Z,64.20
2023-11-24T02:30:14.814Z,66.00
2023-11-24T02:31:14.913Z,65.74
2023-11-24T02:32:14.797Z,65.71
2023-11-24T02:33:14.798Z,66.22
2023-11-24T02:34:14.905Z,65.52
2023-11-24T02:35:14.756Z,62.14
2023-11-24T02:36:14.754Z,65.95
2023-11-24T02:37:14.759Z,63.61
2023-11-24T02:38:14.739Z,62.21
2023-11-24T02:39:14.733Z,62.73
2023-11-24T02:40:14.746Z,66.02
2023-11-24T02:41:14.723Z,65.22
2023-11-24T02:42:14.687Z,66.18
2023-11-24T02:43:14.695Z,64.75
2023-11-24T02:44:14.746Z,64.96
2023-11-24T02:45:14.672Z,64.04
2023-11-24T02:46:14.663Z,63.51
2023-11-24T02:47:14.698Z,64.25
2023-11-24T02:48:14.678Z,58.38
2023-11-24T02:49:14.671Z,67.00
2023-11-24T02:50:14.609Z,61.60
2023-11-24T02:51:14.618Z,59.22
2023-11-24T02:52:14.588Z,58.35
2023-11-24T02:53:14.605Z,59.16
2023-11-24T02:54:14.576Z,63.37
2023-11-24T02:55:14.572Z,62.26
2023-11-24T02:56:14.581Z,64.44
2023-11-24T02:57:14.560Z,58.94
2023-11-24T02:58:14.559Z,61.16
2023-11-24T02:59:14.543Z,56.11
2023-11-24T03:00:14.545Z,63.77
2023-11-24T03:01:14.572Z,60.10
2023-11-24T03:02:14.584Z,64.74
2023-11-24T03:03:14.493Z,62.83
2023-11-24T03:04:14.568Z,55.89
2023-11-24T03:05:14.476Z,64.69
2023-11-24T03:06:14.477Z,56.99
2023-11-24T03:07:14.465Z,64.15
2023-11-24T03:08:14.455Z,58.03
2023-11-24T03:09:14.438Z,55.46
2023-11-24T03:10:14.445Z,57.89
2023-11-24T03:11:14.418Z,62.51
2023-11-24T03:12:14.444Z,57.12
2023-11-24T03:13:14.400Z,59.12
2023-11-24T03:14:14.407Z,62.35
2023-11-24T03:15:14.393Z,62.44
2023-11-24T03:16:14.423Z,61.15
2023-11-24T03:17:14.422Z,58.35
2023-11-24T03:18:14.354Z,56.63
2023-11-24T03:19:14.373Z,54.66
2023-11-24T03:20:14.341Z,58.96
2023-11-24T03:21:14.344Z,59.03
2023-11-24T03:22:14.316Z,57.33
2023-11-24T03:23:14.332Z,57.42
2023-11-24T03:24:14.294Z,59.65
2023-11-24T03:25:14.298Z,63.80
2023-11-24T03:26:14.304Z,60.35
2023-11-24T03:27:19.299Z,60.62
2023-11-24T03:28:14.270Z,60.75
2023-11-24T03:29:14.261Z,61.13
2023-11-24T03:30:14.298Z,56.37
2023-11-24T03:31:14.237Z,61.46
2023-11-24T03:32:14.241Z,66.12
2023-11-24T03:33:14.223Z,58.83
2023-11-24T03:34:14.298Z,57.64
2023-11-24T03:35:14.202Z,56.49
2023-11-24T03:36:14.190Z,60.49
2023-11-24T03:37:14.187Z,60.27
2023-11-24T03:38:14.186Z,60.69
2023-11-24T03:39:14.169Z,62.48
2023-11-24T03:40:14.154Z,62.70
2023-11-24T03:41:14.140Z,58.10
2023-11-24T03:42:14.148Z,59.78
2023-11-24T03:43:14.202Z,62.78
2023-11-24T03:44:14.122Z,59.13
2023-11-24T03:45:14.122Z,57.18
2023-11-24T03:46:14.168Z,60.91
2023-11-24T03:47:14.090Z,59.27
2023-11-24T03:48:14.081Z,62.06
2023-11-24T03:49:14.196Z,57.85
2023-11-24T03:50:14.083Z,58.32
2023-11-24T03:51:14.079Z,58.50
2023-11-24T03:52:14.053Z,63.56
2023-11-24T03:53:14.048Z,56.80
2023-11-24T03:54:14.028Z,62.04
2023-11-24T03:55:14.033Z,58.84
2023-11-24T03:56:14.008Z,60.36
2023-11-24T03:57:14.032Z,56.63
2023-11-24T03:58:14.011Z,57.42
2023-11-24T03:59:13.989Z,59.16
2023-11-24T04:00:13.998Z,59.56
2023-11-24T04:01:14.040Z,59.21
2023-11-24T04:02:14.059Z,59.89
2023-11-24T04:03:13.991Z,60.56
2023-11-24T04:04:13.985Z,57.70
2023-11-24T04:05:13.960Z,61.20
2023-11-24T04:06:13.944Z,57.06
2023-11-24T04:07:13.940Z,60.17
2023-11-24T04:08:13.917Z,59.88
2023-11-24T04:09:13.915Z,58.74
2023-11-24T04:10:13.913Z,59.04
2023-11-24T04:11:13.898Z,58.35
2023-11-24T04:12:13.867Z,56.19
2023-11-24T04:13:13.891Z,59.94
2023-11-24T04:14:13.853Z,59.62
2023-11-24T04:15:13.857Z,57.62
2023-11-24T04:16:13.904Z,57.80
2023-11-24T04:17:13.839Z,62.69
2023-11-24T04:18:13.819Z,60.44
2023-11-24T04:19:13.820Z,60.75
2023-11-24T04:20:13.821Z,60.27
2023-11-24T04:21:13.801Z,58.71
2023-11-24T04:22:13.797Z,58.58
2023-11-24T04:23:13.784Z,57.73
2023-11-24T04:24:13.776Z,60.43
2023-11-24T04:25:13.796Z,58.59
2023-11-24T04:26:13.769Z,58.81
2023-11-24T04:27:13.732Z,60.11
2023-11-24T04:28:13.735Z,62.12
2023-11-24T04:29:18.761Z,60.27
2023-11-24T04:30:13.721Z,60.32
2023-11-24T04:31:13.703Z,60.94
2023-11-24T04:32:13.709Z,61.00
2023-11-24T04:33:13.718Z,59.94
2023-11-24T04:34:13.821Z,61.17
2023-11-24T04:35:13.680Z,62.15
2023-11-24T04:36:13.685Z,62.04
2023-11-24T04:37:13.666Z,58.74
2023-11-24T04:38:13.637Z,58.96
2023-11-24T04:39:13.643Z,60.71
2023-11-24T04:40:13.705Z,59.42
2023-11-24T04:41:13.628Z,59.43
2023-11-24T04:42:13.628Z,58.88
2023-11-24T04:43:13.625Z,60.78
2023-11-24T04:44:13.602Z,59.14
2023-11-24T04:45:13.583Z,59.25
2023-11-24T04:46:13.664Z,60.81
2023-11-24T04:47:13.555Z,59.90
2023-11-24T04:48:13.668Z,59.46
2023-11-24T04:49:13.538Z,62.18
2023-11-24T04:50:13.577Z,61.49
2023-11-24T04:51:13.525Z,60.01
2023-11-24T04:52:13.532Z,61.41
2023-11-24T04:53:13.553Z,59.02
2023-11-24T04:54:13.505Z,58.72
2023-11-24T04:55:13.500Z,61.25
2023-11-24T04:56:18.699Z,60.96
2023-11-24T04:57:13.490Z,60.97
2023-11-24T04:58:13.469Z,61.38
2023-11-24T04:59:13.471Z,60.30
2023-11-24T05:00:13.505Z,61.35
2023-11-24T05:01:13.580Z,60.90
2023-11-24T05:02:13.566Z,60.10
2023-11-24T05:03:13.433Z,59.95
2023-11-24T05:04:13.484Z,62.38
2023-11-24T05:05:13.416Z,62.92
2023-11-24T05:06:13.421Z,60.35
2023-11-24T05:07:13.424Z,60.05
2023-11-24T05:08:13.392Z,63.30
2023-11-24T05:09:13.395Z,58.52
2023-11-24T05:10:13.415Z,62.77
2023-11-24T05:11:13.363Z,61.34
2023-11-24T05:12:13.359Z,59.86
2023-11-24T05:13:13.418Z,61.34
2023-11-24T05:14:13.380Z,60.32
2023-11-24T05:15:13.333Z,60.46
2023-11-24T05:16:13.389Z,60.00
2023-11-24T05:17:13.322Z,61.57
2023-11-24T05:18:13.304Z,58.78
2023-11-24T05:19:13.288Z,62.58
2023-11-24T05:20:13.299Z,61.11
2023-11-24T05:21:13.283Z,58.70
2023-11-24T05:22:13.308Z,60.48
2023-11-24T05:23:13.329Z,59.58
2023-11-24T05:24:13.246Z,61.95
2023-11-24T05:25:13.226Z,60.67
2023-11-24T05:26:13.246Z,58.96
2023-11-24T05:27:13.241Z,58.99
2023-11-24T05:28:13.263Z,61.60
2023-11-24T05:29:13.224Z,60.20
2023-11-24T05:30:13.244Z,59.30
2023-11-24T05:31:13.274Z,57.32
2023-11-24T05:32:13.218Z,59.57
2023-11-24T05:33:13.167Z,60.69
2023-11-24T05:34:13.188Z,60.53
2023-11-24T05:35:13.157Z,59.99
2023-11-24T05:36:13.157Z,62.28
2023-11-24T05:37:13.198Z,59.95
2023-11-24T05:38:13.142Z,61.23
2023-11-24T05:39:13.136Z,58.53
2023-11-24T05:40:13.159Z,58.94
2023-11-24T05:41:13.116Z,61.77
2023-11-24T05:42:13.094Z,59.88
2023-11-24T05:43:13.164Z,61.16
2023-11-24T05:44:13.077Z,59.49
2023-11-24T05:45:13.079Z,60.89
2023-11-24T05:46:13.189Z,59.65
2023-11-24T05:47:13.057Z,57.92
2023-11-24T05:48:13.064Z,62.21
2023-11-24T05:49:13.033Z,59.52
2023-11-24T05:50:13.037Z,62.24
2023-11-24T05:51:13.015Z,59.47
2023-11-24T05:52:13.133Z,60.62
2023-11-24T05:53:13.018Z,59.84
2023-11-24T05:54:12.990Z,60.20
2023-11-24T05:55:13.094Z,60.84
2023-11-24T05:56:12.987Z,61.84
2023-11-24T05:57:12.965Z,58.49
2023-11-24T05:58:13.088Z,61.74
2023-11-24T05:59:12.930Z,59.33
2023-11-24T06:00:12.972Z,59.69
2023-11-24T06:01:12.960Z,60.90
2023-11-24T06:02:12.963Z,61.66
2023-11-24T06:03:12.923Z,60.86
2023-11-24T06:04:12.995Z,61.92
2023-11-24T06:05:13.012Z,60.72
2023-11-24T06:06:12.886Z,59.89
2023-11-24T06:07:17.900Z,61.38
2023-11-24T06:08:12.859Z,61.44
2023-11-24T06:09:12.856Z,61.55
2023-11-24T06:10:12.874Z,61.58
2023-11-24T06:11:12.858Z,61.14
2023-11-24T06:12:12.857Z,63.55
2023-11-24T06:13:12.873Z,60.53
2023-11-24T06:14:12.817Z,58.20
2023-11-24T06:15:12.822Z,61.79
2023-11-24T06:16:12.826Z,62.28
2023-11-24T06:17:12.788Z,61.92
2023-11-24T06:18:12.845Z,61.12
2023-11-24T06:19:12.799Z,59.45
2023-11-24T06:20:12.764Z,61.14
2023-11-24T06:21:12.736Z,58.99
2023-11-24T06:22:12.780Z,60.57
2023-11-24T06:23:12.719Z,61.07
2023-11-24T06:24:12.730Z,60.07
2023-11-24T06:25:15.948Z,61.54
2023-11-24T06:26:12.709Z,61.59
2023-11-24T06:27:12.695Z,60.22
2023-11-24T06:28:12.728Z,61.68
2023-11-24T06:29:12.675Z,60.52
2023-11-24T06:30:12.668Z,60.28
2023-11-24T06:31:14.807Z,62.56
2023-11-24T06:32:12.672Z,63.19
2023-11-24T06:33:12.660Z,61.63
2023-11-24T06:34:12.761Z,61.56
2023-11-24T06:35:12.623Z,61.87
2023-11-24T06:36:12.715Z,63.15
2023-11-24T06:37:12.708Z,64.14
2023-11-24T06:38:12.617Z,63.11
2023-11-24T06:39:12.602Z,63.79
2023-11-24T06:40:12.846Z,62.30
2023-11-24T06:41:12.567Z,66.02
2023-11-24T06:42:12.568Z,64.23
2023-11-24T06:43:12.630Z,67.20
2023-11-24T06:44:12.554Z,78.91
2023-11-24T06:45:12.567Z,85.70
2023-11-24T06:46:12.556Z,110.72
2023-11-24T06:47:12.524Z,126.96
2023-11-24T06:48:12.546Z,133.16
2023-11-24T06:49:12.540Z,132.88
2023-11-24T06:50:12.510Z,122.43
2023-11-24T06:51:12.482Z,111.22
2023-11-24T06:52:12.499Z,94.97
2023-11-24T06:53:12.473Z,82.02
2023-11-24T06:54:12.453Z,73.82
2023-11-24T06:55:12.505Z,68.85
2023-11-24T06:56:12.471Z,59.78
2023-11-24T06:57:12.427Z,58.41
2023-11-24T06:58:12.497Z,62.15
2023-11-24T06:59:12.409Z,60.60
2023-11-24T07:00:12.439Z,64.05
2023-11-24T07:01:12.510Z,69.92
2023-11-24T07:02:12.503Z,70.80
2023-11-24T07:03:12.403Z,76.42
2023-11-24T07:04:12.495Z,78.02
2023-11-24T07:05:13.475Z,81.17
2023-11-24T07:06:12.644Z,84.54
2023-11-24T07:07:12.813Z,87.06
2023-11-24T07:08:12.658Z,88.98
2023-11-24T07:09:13.399Z,94.02
2023-11-24T07:10:12.431Z,100.14
2023-11-24T07:11:12.447Z,104.43
2023-11-24T07:12:12.307Z,108.35
2023-11-24T07:13:12.317Z,113.95
2023-11-24T07:14:12.299Z,115.34
2023-11-24T07:15:12.277Z,119.97
2023-11-24T07:16:12.354Z,121.78
2023-11-24T07:17:12.246Z,126.75
2023-11-24T07:18:12.358Z,132.14
2023-11-24T07:19:12.392Z,135.70
2023-11-24T07:20:12.218Z,136.93
2023-11-24T07:21:12.198Z,141.64
2023-11-24T07:22:12.255Z,145.20
2023-11-24T07:23:12.214Z,149.64
2023-11-24T07:24:12.179Z,153.32
2023-11-24T07:25:12.261Z,154.24
2023-11-24T07:26:12.160Z,157.31
2023-11-24T07:27:12.171Z,159.30
2023-11-24T07:28:12.229Z,162.72
2023-11-24T07:29:12.115Z,166.41
2023-11-24T07:30:12.135Z,172.35
2023-11-24T07:31:12.143Z,174.56
2023-11-24T07:32:12.123Z,174.24
2023-11-24T07:33:12.518Z,178.07
2023-11-24T07:34:12.214Z,180.58
2023-11-24T07:35:12.426Z,183.44
2023-11-24T07:36:12.057Z,185.32
2023-11-24T07:37:12.105Z,189.27
2023-11-24T07:38:12.066Z,190.70
2023-11-24T07:39:12.040Z,192.34
2023-11-24T07:40:12.094Z,197.28
2023-11-24T07:41:12.053Z,199.79
2023-11-24T07:42:12.012Z,198.63
2023-11-24T07:43:12.055Z,199.87
2023-11-24T07:44:12.024Z,198.55
2023-11-24T07:45:12.000Z,199.69
2023-11-24T07:46:12.419Z,199.57
2023-11-24T07:47:11.972Z,198.52
2023-11-24T07:48:12.000Z,202.29
2023-11-24T07:49:12.061Z,222.82
2023-11-24T07:50:11.940Z,222.28
2023-11-24T07:51:11.942Z,217.04
2023-11-24T07:52:12.090Z,207.84
2023-11-24T07:53:11.905Z,200.00
2023-11-24T07:54:11.939Z,198.85
2023-11-24T07:55:11.935Z,198.06
2023-11-24T07:56:11.901Z,198.12
2023-11-24T07:57:11.874Z,194.13
2023-11-24T07:58:11.906Z,194.25
2023-11-24T07:59:11.854Z,200.73
2023-11-24T08:00:11.848Z,202.49
2023-11-24T08:01:12.024Z,191.03
2023-11-24T08:02:11.925Z,175.48
2023-11-24T08:03:11.839Z,163.35
2023-11-24T08:04:11.950Z,153.62
2023-11-24T08:05:11.874Z,144.82
2023-11-24T08:06:11.799Z,137.84
2023-11-24T08:07:11.849Z,132.33
2023-11-24T08:08:11.787Z,129.67
2023-11-24T08:09:11.802Z,125.84
2023-11-24T08:10:11.849Z,121.92
2023-11-24T08:11:11.741Z,118.77
2023-11-24T08:12:14.218Z,117.15
2023-11-24T08:13:11.887Z,114.31
2023-11-24T08:14:11.862Z,116.73
2023-11-24T08:15:11.872Z,116.24
2023-11-24T08:16:11.941Z,117.36
2023-11-24T08:17:11.918Z,118.39
2023-11-24T08:18:11.873Z,118.49
2023-11-24T08:19:11.895Z,117.93
2023-11-24T08:20:11.869Z,116.62
2023-11-24T08:21:11.796Z,118.21
2023-11-24T08:22:11.880Z,117.66
2023-11-24T08:23:11.775Z,119.01
2023-11-24T08:24:11.756Z,118.73
2023-11-24T08:25:12.030Z,120.18
2023-11-24T08:26:13.247Z,121.12
2023-11-24T08:27:11.739Z,121.30
2023-11-24T08:28:11.762Z,122.44
2023-11-24T08:29:11.719Z,123.39
2023-11-24T08:30:11.729Z,123.92
2023-11-24T08:31:11.747Z,124.61
2023-11-24T08:32:11.714Z,126.49
2023-11-24T08:33:11.754Z,126.28
2023-11-24T08:34:11.728Z,127.86
2023-11-24T08:35:11.724Z,126.73
2023-11-24T08:36:11.709Z,128.94
2023-11-24T08:37:11.702Z,130.06
2023-11-24T08:38:13.081Z,130.32
2023-11-24T08:39:11.615Z,130.28
2023-11-24T08:40:11.741Z,132.03
2023-11-24T08:41:11.597Z,131.85
2023-11-24T08:42:11.602Z,132.29
2023-11-24T08:43:11.657Z,133.68
2023-11-24T08:44:11.601Z,133.85
2023-11-24T08:45:11.587Z,135.04
2023-11-24T08:46:11.715Z,137.35
2023-11-24T08:47:11.636Z,136.78
2023-11-24T08:48:11.618Z,137.59
2023-11-24T08:49:11.584Z,137.75
2023-11-24T08:50:11.524Z,138.37
2023-11-24T08:51:11.528Z,140.98
2023-11-24T08:52:11.577Z,140.33
2023-11-24T08:53:11.503Z,140.99
2023-11-24T08:54:11.697Z,141.78
2023-11-24T08:55:11.572Z,141.20
2023-11-24T08:56:11.504Z,143.19
2023-11-24T08:57:11.464Z,143.60
2023-11-24T08:58:11.500Z,143.57
2023-11-24T08:59:11.444Z,142.83
2023-11-24T09:00:11.424Z,142.74
2023-11-24T09:01:11.505Z,143.48
2023-11-24T09:02:11.543Z,143.77
2023-11-24T09:03:11.410Z,144.85
2023-11-24T09:04:11.561Z,142.88
2023-11-24T09:05:11.449Z,144.89
2023-11-24T09:06:11.391Z,144.22
2023-11-24T09:07:11.402Z,145.19
2023-11-24T09:08:11.369Z,143.99
2023-11-24T09:09:11.355Z,143.99
2023-11-24T09:10:11.393Z,143.66
2023-11-24T09:11:11.333Z,145.12
2023-11-24T09:12:11.332Z,145.49
2023-11-24T09:13:11.411Z,145.30
2023-11-24T09:14:11.375Z,146.46
2023-11-24T09:15:11.370Z,144.95
2023-11-24T09:16:11.361Z,145.49
2023-11-24T09:17:11.361Z,146.04
2023-11-24T09:18:11.280Z,144.58
2023-11-24T09:19:11.299Z,146.90
2023-11-24T09:20:11.266Z,145.97
2023-11-24T09:21:11.255Z,145.49
2023-11-24T09:22:11.288Z,146.67
2023-11-24T09:23:11.240Z,145.05
2023-11-24T09:24:11.210Z,146.13
2023-11-24T09:25:11.275Z,145.48
2023-11-24T09:26:11.199Z,145.65
2023-11-24T09:27:11.189Z,146.98
2023-11-24T09:28:11.217Z,145.85
2023-11-24T09:29:11.187Z,144.20
2023-11-24T09:30:11.198Z,144.92
2023-11-24T09:31:11.215Z,145.29
2023-11-24T09:32:11.160Z,145.49
2023-11-24T09:33:11.156Z,145.31
2023-11-24T09:34:11.196Z,145.19
2023-11-24T09:35:11.233Z,146.06
2023-11-24T09:36:11.122Z,144.91
2023-11-24T09:37:11.128Z,144.72
2023-11-24T09:38:11.103Z,144.55
2023-11-24T09:39:11.078Z,145.12
2023-11-24T09:40:11.179Z,144.23
2023-11-24T09:41:11.078Z,144.25
2023-11-24T09:42:11.048Z,144.65
2023-11-24T09:43:11.070Z,144.03
2023-11-24T09:44:11.033Z,144.41
2023-11-24T09:45:11.068Z,144.52
2023-11-24T09:46:11.069Z,143.93
2023-11-24T09:47:11.031Z,144.00
2023-11-24T09:48:11.004Z,143.41
2023-11-24T09:49:10.993Z,143.79
2023-11-24T09:50:10.987Z,144.72
2023-11-24T09:51:10.964Z,143.17
2023-11-24T09:52:10.962Z,144.83
2023-11-24T09:53:10.960Z,143.67
2023-11-24T09:54:10.931Z,143.57
2023-11-24T09:55:10.955Z,143.36
2023-11-24T09:56:10.916Z,143.51
2023-11-24T09:57:10.918Z,143.64
2023-11-24T09:58:10.919Z,143.60
2023-11-24T09:59:10.914Z,142.40
2023-11-24T10:00:10.952Z,143.08
2023-11-24T10:01:11.005Z,142.33
2023-11-24T10:02:10.865Z,141.69
2023-11-24T10:03:10.898Z,142.44
2023-11-24T10:04:10.919Z,141.68
2023-11-24T10:05:10.852Z,142.26
2023-11-24T10:06:10.805Z,142.03
2023-11-24T10:07:10.838Z,143.11
2023-11-24T10:08:13.190Z,142.71
2023-11-24T10:09:10.797Z,141.91
2023-11-24T10:10:10.810Z,142.32
2023-11-24T10:11:10.780Z,142.67
2023-11-24T10:12:10.745Z,141.37
2023-11-24T10:13:10.803Z,143.90
2023-11-24T10:14:10.761Z,141.33
2023-11-24T10:15:10.747Z,142.69
2023-11-24T10:16:10.757Z,141.09
2023-11-24T10:17:10.735Z,140.55
2023-11-24T10:18:10.756Z,139.92
2023-11-24T10:19:10.727Z,140.85
2023-11-24T10:20:10.698Z,140.83
2023-11-24T10:21:22.837Z,140.93
2023-11-24T10:22:11.763Z,140.96
2023-11-24T10:23:10.666Z,141.04
2023-11-24T10:24:10.650Z,140.95
2023-11-24T10:25:10.701Z,141.72
2023-11-24T10:26:13.193Z,140.42
2023-11-24T10:27:10.641Z,141.00
2023-11-24T10:28:10.638Z,140.32
2023-11-24T10:29:10.633Z,141.12
2023-11-24T10:30:10.601Z,141.95
2023-11-24T10:31:10.605Z,141.23
2023-11-24T10:32:13.022Z,141.00
2023-11-24T10:33:34.362Z,140.41
2023-11-24T10:34:11.648Z,141.03
2023-11-24T10:35:10.656Z,140.96
2023-11-24T10:36:10.529Z,140.89
2023-11-24T10:37:10.589Z,140.23
2023-11-24T10:38:12.763Z,139.85
2023-11-24T10:39:10.517Z,139.83
2023-11-24T10:40:10.548Z,141.10
2023-11-24T10:41:10.503Z,139.65
2023-11-24T10:42:10.707Z,140.54
2023-11-24T10:43:10.508Z,138.46
2023-11-24T10:44:10.560Z,138.12
2023-11-24T10:45:10.471Z,139.03
2023-11-24T10:46:12.374Z,137.63
2023-11-24T10:47:10.474Z,138.93
2023-11-24T10:48:10.494Z,136.74
2023-11-24T10:49:10.451Z,135.51
2023-11-24T10:50:10.391Z,132.82
2023-11-24T10:51:10.398Z,128.28
2023-11-24T10:52:10.467Z,126.24
2023-11-24T10:53:10.379Z,123.17
2023-11-24T10:54:10.357Z,118.27
2023-11-24T10:55:10.379Z,113.09
2023-11-24T10:56:10.344Z,109.24
2023-11-24T10:57:10.357Z,106.11
2023-11-24T10:58:10.355Z,105.04
2023-11-24T10:59:10.314Z,102.54
2023-11-24T11:00:10.338Z,101.82
2023-11-24T11:01:10.372Z,101.63
2023-11-24T11:02:14.020Z,99.95
2023-11-24T11:03:10.313Z,100.04
2023-11-24T11:04:10.260Z,100.13
2023-11-24T11:05:10.256Z,100.32
2023-11-24T11:06:10.277Z,99.48
2023-11-24T11:07:10.275Z,100.01
2023-11-24T11:08:10.234Z,99.68
2023-11-24T11:09:10.215Z,97.63
2023-11-24T11:10:10.229Z,97.69
2023-11-24T11:11:10.256Z,99.71
2023-11-24T11:12:10.200Z,99.40
2023-11-24T11:13:10.182Z,99.48
2023-11-24T11:14:10.208Z,98.15
2023-11-24T11:15:10.162Z,97.34
2023-11-24T11:16:10.208Z,100.38
2023-11-24T11:17:10.196Z,100.10
2023-11-24T11:18:10.236Z,100.15
2023-11-24T11:19:10.167Z,99.80
2023-11-24T11:20:10.142Z,98.96
2023-11-24T11:21:10.106Z,99.08
2023-11-24T11:22:10.108Z,98.13
2023-11-24T11:23:10.120Z,97.00
2023-11-24T11:24:10.098Z,94.79
2023-11-24T11:25:10.092Z,95.63
2023-11-24T11:26:10.057Z,94.21
2023-11-24T11:27:10.070Z,95.99
2023-11-24T11:28:10.072Z,95.82
2023-11-24T11:29:10.052Z,94.78
2023-11-24T11:30:10.016Z,94.61
2023-11-24T11:31:10.151Z,93.65
2023-11-24T11:32:10.018Z,95.85
2023-11-24T11:33:10.023Z,96.00
2023-11-24T11:34:10.071Z,96.42
2023-11-24T11:35:09.991Z,97.06
2023-11-24T11:36:09.966Z,98.77
2023-11-24T11:37:09.992Z,97.60
2023-11-24T11:38:09.949Z,99.31
2023-11-24T11:39:09.937Z,100.05
2023-11-24T11:40:10.018Z,101.62
2023-11-24T11:41:09.930Z,101.17
2023-11-24T11:42:09.935Z,102.79
2023-11-24T11:43:09.933Z,105.48
2023-11-24T11:44:09.917Z,102.15
2023-11-24T11:45:09.914Z,102.05
2023-11-24T11:46:09.936Z,102.00
2023-11-24T11:47:09.949Z,101.37
2023-11-24T11:48:09.930Z,96.21
2023-11-24T11:49:09.911Z,91.98
2023-11-24T11:50:09.847Z,85.67
2023-11-24T11:51:09.844Z,84.07
2023-11-24T11:52:10.008Z,84.62
2023-11-24T11:53:09.850Z,84.36
2023-11-24T11:54:09.813Z,84.89
2023-11-24T11:55:09.871Z,84.56
2023-11-24T11:56:09.790Z,86.12
2023-11-24T11:57:09.790Z,86.31
2023-11-24T11:58:09.785Z,87.29
2023-11-24T11:59:09.776Z,88.33
2023-11-24T12:00:09.776Z,89.19
2023-11-24T12:01:09.973Z,90.73
2023-11-24T12:02:09.809Z,91.97
2023-11-24T12:03:09.834Z,94.70
2023-11-24T12:04:09.823Z,94.80
2023-11-24T12:05:09.713Z,95.87
2023-11-24T12:06:09.689Z,98.69
2023-11-24T12:07:09.734Z,101.26
2023-11-24T12:08:09.701Z,102.41
2023-11-24T12:09:09.680Z,105.28
2023-11-24T12:10:09.700Z,107.59
2023-11-24T12:11:09.663Z,109.00
2023-11-24T12:12:09.646Z,111.01
2023-11-24T12:13:09.653Z,114.11
2023-11-24T12:14:09.637Z,114.91
2023-11-24T12:15:09.616Z,117.54
2023-11-24T12:16:09.788Z,119.58
2023-11-24T12:17:09.731Z,122.23
2023-11-24T12:18:09.607Z,125.01
2023-11-24T12:19:09.663Z,127.83
2023-11-24T12:20:09.565Z,129.02
2023-11-24T12:21:09.578Z,130.55
2023-11-24T12:22:09.588Z,132.20
2023-11-24T12:23:09.554Z,134.81
2023-11-24T12:24:15.247Z,136.42
2023-11-24T12:25:10.595Z,136.55
2023-11-24T12:26:09.508Z,137.03
2023-11-24T12:27:09.515Z,138.33
2023-11-24T12:28:09.519Z,139.97
2023-11-24T12:29:09.497Z,144.35
2023-11-24T12:30:09.506Z,147.17
2023-11-24T12:31:09.564Z,149.53
2023-11-24T12:32:09.526Z,149.45
2023-11-24T12:33:09.516Z,152.00
2023-11-24T12:34:09.469Z,151.07
2023-11-24T12:35:09.613Z,154.63
2023-11-24T12:36:09.482Z,156.97
2023-11-24T12:37:09.494Z,159.84
2023-11-24T12:38:09.439Z,165.91
2023-11-24T12:39:09.431Z,168.39
2023-11-24T12:40:09.430Z,174.28
2023-11-24T12:41:09.374Z,176.42
2023-11-24T12:42:09.396Z,178.25
2023-11-24T12:43:09.393Z,182.48